Chapais, Canada
Current Conditions -  °F | °C
As of 7:00 AM on Saturday 01 Nov 2014 (Local Time) from CYNM Reporting Station
Overcast Overcast  
Wind Chill: 14°   Ceiling: 700
Heat Index: 25°   Visibility: 9mi
Dew Point: 23°   Wind: 12mph
Humidity: 93%   Direction: 350°N
Pressure: 30.34"   Gusts: NA
Location:  49.78°N, 74.85°W
Report Text: CYNM 011100Z AUTO 35010KT 9SM OVC007 M04/M05 A3034 RMK ICG MISG SLP292
Loading
Personal Weather Stations






























Interactive Weather Map
Tropical Storm Tracking
New forecast layout! Learn more

10-Day Weather Forecast

Advertisements
Track Severe Weather on mobile